createdAt,value
2023-02-15T00:02:26.749Z,94.37
2023-02-15T00:04:58.541Z,98.01
2023-02-15T00:07:29.891Z,97.87
2023-02-15T00:10:01.027Z,96.80
2023-02-15T00:12:33.818Z,94.35
2023-02-15T00:15:04.856Z,95.22
2023-02-15T00:17:36.038Z,94.92
2023-02-15T00:20:08.316Z,93.23
2023-02-15T00:22:39.938Z,97.92
2023-02-15T00:25:10.922Z,93.82
2023-02-15T00:27:42.062Z,95.67
2023-02-15T00:30:13.558Z,94.89
2023-02-15T00:32:44.708Z,94.75
2023-02-15T00:35:15.842Z,97.40
2023-02-15T00:37:47.062Z,100.00
2023-02-15T00:40:18.502Z,100.00
2023-02-15T00:42:49.233Z,95.79
2023-02-15T00:45:20.345Z,99.57
2023-02-15T00:47:50.874Z,98.58
2023-02-15T00:50:23.828Z,98.37
2023-02-15T00:52:55.478Z,100.00
2023-02-15T00:55:26.862Z,100.00
2023-02-15T00:57:57.810Z,100.00
2023-02-15T01:00:28.928Z,100.00
2023-02-15T01:03:00.967Z,100.00
2023-02-15T01:05:32.552Z,99.04
2023-02-15T01:08:04.216Z,95.15
2023-02-15T01:10:36.242Z,90.63
2023-02-15T01:13:07.831Z,94.65
2023-02-15T01:15:39.510Z,99.65
2023-02-15T01:18:10.989Z,95.13
2023-02-15T01:20:43.591Z,97.53
2023-02-15T01:23:14.580Z,96.97
2023-02-15T01:25:45.284Z,95.63
2023-02-15T01:28:16.691Z,96.04
2023-02-15T01:30:47.816Z,95.32
2023-02-15T01:33:20.856Z,93.55
2023-02-15T01:35:52.120Z,96.20
2023-02-15T01:38:22.757Z,92.48
2023-02-15T01:41:17.416Z,96.31
2023-02-15T01:43:51.391Z,95.79
2023-02-15T01:46:27.930Z,94.43
2023-02-15T01:49:06.989Z,89.85
2023-02-15T01:51:40.014Z,91.18
2023-02-15T01:54:27.069Z,89.97
2023-02-15T01:57:01.593Z,92.29
2023-02-15T01:59:35.508Z,94.51
2023-02-15T02:02:09.093Z,94.54
2023-02-15T02:04:52.069Z,95.38
2023-02-15T02:07:25.361Z,94.27
2023-02-15T02:09:56.840Z,99.33
2023-02-15T02:12:28.838Z,100.00
2023-02-15T02:15:00.334Z,100.00
2023-02-15T02:17:40.128Z,95.35
2023-02-15T02:20:39.096Z,100.00
2023-02-15T02:23:28.524Z,100.00
2023-02-15T02:26:36.247Z,100.00
2023-02-15T02:29:22.279Z,100.00
2023-02-15T02:32:25.441Z,100.00
2023-02-15T02:35:36.789Z,100.00
2023-02-15T02:38:16.934Z,100.00
2023-02-15T02:41:07.020Z,100.00
2023-02-15T02:44:16.584Z,100.00
2023-02-15T02:46:57.962Z,100.00
2023-02-15T02:49:38.304Z,100.00
2023-02-15T02:52:30.464Z,100.00
2023-02-15T02:55:02.666Z,100.00
2023-02-15T02:57:34.610Z,100.00
2023-02-15T03:00:10.891Z,100.00
2023-02-15T03:02:44.879Z,100.00
2023-02-15T03:05:19.503Z,100.00
2023-02-15T03:07:53.525Z,100.00
2023-02-15T03:10:26.217Z,100.00
2023-02-15T03:12:57.824Z,100.00
2023-02-15T03:15:53.300Z,100.00
2023-02-15T03:18:30.170Z,100.00
2023-02-15T03:21:05.154Z,100.00
2023-02-15T03:23:37.640Z,100.00
2023-02-15T03:26:11.216Z,100.00
2023-02-15T03:28:48.573Z,100.00
2023-02-15T03:31:21.224Z,100.00
2023-02-15T03:34:03.834Z,100.00
2023-02-15T03:36:40.367Z,100.00
2023-02-15T03:39:23.406Z,100.00
2023-02-15T03:42:07.155Z,100.00
2023-02-15T03:45:01.910Z,100.00
2023-02-15T03:47:41.297Z,100.00
2023-02-15T03:50:40.555Z,100.00
2023-02-15T03:53:15.550Z,100.00
2023-02-15T03:55:50.584Z,100.00
2023-02-15T03:58:39.704Z,100.00
2023-02-15T04:02:00.762Z,100.00
2023-02-15T04:04:45.060Z,100.00
2023-02-15T04:07:16.696Z,100.00
2023-02-15T04:10:05.432Z,100.00
2023-02-15T04:12:37.140Z,100.00
2023-02-15T04:15:27.149Z,100.00
2023-02-15T04:18:01.298Z,100.00
2023-02-15T04:20:50.812Z,100.00
2023-02-15T04:23:39.556Z,100.00
2023-02-15T04:26:11.555Z,100.00
2023-02-15T04:28:42.850Z,100.00
2023-02-15T04:31:14.055Z,100.00
2023-02-15T04:33:46.342Z,100.00
2023-02-15T04:36:17.655Z,100.00
2023-02-15T04:38:48.682Z,100.00
2023-02-15T04:41:19.707Z,100.00
2023-02-15T04:43:50.869Z,100.00
2023-02-15T04:46:22.273Z,100.00
2023-02-15T04:48:53.768Z,100.00
2023-02-15T04:51:24.715Z,100.00
2023-02-15T04:53:55.694Z,100.00
2023-02-15T04:56:27.056Z,100.00
2023-02-15T04:58:58.346Z,100.00
2023-02-15T05:01:29.701Z,100.00
2023-02-15T05:04:00.981Z,100.00
2023-02-15T05:06:32.446Z,100.00
2023-02-15T05:09:03.954Z,100.00
2023-02-15T05:11:35.540Z,100.00
2023-02-15T05:14:06.969Z,100.00
2023-02-15T05:16:38.810Z,100.00
2023-02-15T05:19:09.900Z,100.00
2023-02-15T05:21:40.956Z,100.00
2023-02-15T05:24:29.894Z,100.00
2023-02-15T05:27:20.126Z,100.00
2023-02-15T05:29:51.828Z,100.00
2023-02-15T05:32:22.537Z,100.00
2023-02-15T05:34:53.526Z,100.00
2023-02-15T05:37:24.644Z,100.00
2023-02-15T05:39:56.029Z,100.00
2023-02-15T05:42:27.012Z,100.00
2023-02-15T05:44:58.311Z,100.00
2023-02-15T05:47:29.560Z,100.00
2023-02-15T05:50:00.569Z,100.00
2023-02-15T05:52:33.420Z,100.00
2023-02-15T05:55:05.141Z,100.00
2023-02-15T05:57:36.354Z,100.00
2023-02-15T06:00:08.438Z,100.00
2023-02-15T06:02:42.685Z,100.00
2023-02-15T06:05:13.954Z,100.00
2023-02-15T06:07:49.629Z,100.00
2023-02-15T06:10:20.798Z,100.00
2023-02-15T06:12:52.083Z,100.00
2023-02-15T06:15:23.330Z,100.00
2023-02-15T06:17:54.836Z,100.00
2023-02-15T06:20:25.778Z,100.00
2023-02-15T06:22:56.732Z,100.00
2023-02-15T06:25:28.032Z,100.00
2023-02-15T06:28:00.144Z,100.00
2023-02-15T06:30:31.405Z,100.00
2023-02-15T06:33:02.480Z,100.00
2023-02-15T06:35:33.519Z,100.00
2023-02-15T06:38:05.049Z,100.00
2023-02-15T06:40:36.225Z,100.00
2023-02-15T06:43:07.376Z,100.00
2023-02-15T06:45:38.429Z,100.00
2023-02-15T06:48:10.556Z,100.00
2023-02-15T06:50:41.766Z,100.00
2023-02-15T06:53:13.198Z,100.00
2023-02-15T06:55:47.256Z,100.00
2023-02-15T06:58:18.347Z,100.00
2023-02-15T07:00:49.404Z,100.00
2023-02-15T07:03:20.727Z,100.00
2023-02-15T07:05:52.208Z,100.00
2023-02-15T07:08:23.398Z,100.00
2023-02-15T07:10:55.066Z,100.00
2023-02-15T07:13:26.196Z,100.00
2023-02-15T07:15:57.391Z,100.00
2023-02-15T07:18:31.099Z,100.00
2023-02-15T07:21:02.213Z,100.00
2023-02-15T07:23:33.397Z,100.00
2023-02-15T07:26:08.898Z,100.00
2023-02-15T07:28:40.884Z,100.00
2023-02-15T07:31:12.210Z,100.00
2023-02-15T07:33:43.070Z,100.00
2023-02-15T07:36:14.622Z,100.00
2023-02-15T07:38:51.747Z,100.00
2023-02-15T07:41:23.391Z,100.00
2023-02-15T07:43:54.886Z,100.00
2023-02-15T07:46:34.616Z,100.00
2023-02-15T07:49:06.243Z,100.00
2023-02-15T07:51:37.615Z,100.00
2023-02-15T07:54:08.838Z,100.00
2023-02-15T07:56:39.828Z,100.00
2023-02-15T07:59:11.561Z,100.00
2023-02-15T08:01:43.202Z,100.00
2023-02-15T08:04:14.526Z,100.00
2023-02-15T08:06:45.597Z,100.00
2023-02-15T08:09:16.691Z,100.00
2023-02-15T08:11:48.213Z,100.00
2023-02-15T08:14:25.681Z,100.00
2023-02-15T08:16:58.727Z,100.00
2023-02-15T08:19:31.997Z,100.00
2023-02-15T08:22:06.475Z,100.00
2023-02-15T08:24:40.091Z,100.00
2023-02-15T08:27:13.250Z,100.00
2023-02-15T08:29:45.445Z,100.00
2023-02-15T08:32:16.730Z,100.00
2023-02-15T08:34:47.903Z,100.00
2023-02-15T08:37:18.905Z,100.00
2023-02-15T08:39:49.837Z,100.00
2023-02-15T08:42:23.164Z,100.00
2023-02-15T08:44:54.200Z,100.00
2023-02-15T08:47:25.231Z,100.00
2023-02-15T08:49:56.537Z,100.00
2023-02-15T08:52:28.059Z,100.00
2023-02-15T08:54:58.996Z,100.00
2023-02-15T08:57:30.919Z,100.00
2023-02-15T09:00:01.266Z,100.00
2023-02-15T09:02:33.588Z,100.00
2023-02-15T09:05:05.349Z,100.00
2023-02-15T09:07:36.698Z,100.00
2023-02-15T09:10:08.594Z,100.00
2023-02-15T09:12:39.490Z,100.00
2023-02-15T09:15:10.851Z,100.00
2023-02-15T09:17:41.839Z,100.00
2023-02-15T09:20:13.342Z,100.00
2023-02-15T09:22:44.308Z,100.00
2023-02-15T09:25:16.155Z,100.00
2023-02-15T09:27:47.140Z,100.00
2023-02-15T09:30:18.169Z,100.00
2023-02-15T09:32:49.988Z,100.00
2023-02-15T09:35:21.162Z,100.00
2023-02-15T09:37:52.386Z,100.00
2023-02-15T09:40:23.791Z,100.00
2023-02-15T09:43:39.407Z,100.00
2023-02-15T09:46:23.782Z,100.00
2023-02-15T09:49:02.557Z,100.00
2023-02-15T09:51:48.713Z,100.00
2023-02-15T09:54:29.300Z,100.00
2023-02-15T09:57:08.414Z,100.00
2023-02-15T10:00:19.790Z,100.00
2023-02-15T10:03:06.827Z,100.00
2023-02-15T10:05:59.556Z,100.00
2023-02-15T10:08:51.537Z,100.00
2023-02-15T10:11:44.015Z,100.00
2023-02-15T10:14:43.192Z,100.00
2023-02-15T10:17:32.297Z,100.00
2023-02-15T10:20:32.536Z,100.00
2023-02-15T10:23:06.746Z,100.00
2023-02-15T10:26:05.367Z,100.00
2023-02-15T10:28:39.749Z,100.00
2023-02-15T10:31:18.506Z,100.00
2023-02-15T10:33:50.036Z,100.00
2023-02-15T10:36:38.138Z,100.00
2023-02-15T10:39:26.931Z,100.00
2023-02-15T10:42:37.966Z,100.00
2023-02-15T10:45:12.222Z,100.00
2023-02-15T10:47:55.222Z,100.00
2023-02-15T10:50:33.639Z,100.00
2023-02-15T10:53:17.593Z,100.00
2023-02-15T10:56:15.366Z,100.00
2023-02-15T10:59:07.724Z,100.00
2023-02-15T11:01:57.085Z,100.00
2023-02-15T11:04:43.539Z,100.00
2023-02-15T11:07:29.401Z,100.00
2023-02-15T11:10:46.367Z,100.00
2023-02-15T11:13:22.214Z,100.00
2023-02-15T11:16:08.646Z,100.00
2023-02-15T11:18:45.044Z,100.00
2023-02-15T11:21:54.355Z,100.00
2023-02-15T11:24:30.009Z,100.00
2023-02-15T11:27:23.692Z,100.00
2023-02-15T11:29:57.942Z,100.00
2023-02-15T11:32:42.205Z,100.00
2023-02-15T11:35:16.380Z,100.00
2023-02-15T11:38:18.025Z,100.00
2023-02-15T11:41:01.501Z,100.00
2023-02-15T11:44:21.854Z,100.00
2023-02-15T11:46:53.953Z,100.00
2023-02-15T11:49:35.111Z,100.00
2023-02-15T11:52:10.581Z,100.00
2023-02-15T11:54:54.108Z,100.00
2023-02-15T11:57:40.652Z,100.00
2023-02-15T12:00:18.954Z,100.00
2023-02-15T12:02:53.675Z,100.00
2023-02-15T12:05:27.012Z,100.00
2023-02-15T12:08:19.995Z,100.00
2023-02-15T12:11:01.092Z,100.00
2023-02-15T12:13:32.672Z,100.00
2023-02-15T12:16:09.949Z,100.00
2023-02-15T12:18:49.902Z,100.00
2023-02-15T12:21:44.063Z,100.00
2023-02-15T12:24:48.689Z,100.00
2023-02-15T12:27:46.404Z,100.00
2023-02-15T12:30:28.679Z,100.00
2023-02-15T12:33:02.781Z,100.00
2023-02-15T12:35:36.779Z,100.00
2023-02-15T12:38:13.783Z,100.00
2023-02-15T12:40:45.939Z,100.00
2023-02-15T12:43:36.813Z,100.00
2023-02-15T12:46:24.759Z,100.00
2023-02-15T12:49:22.620Z,100.00
2023-02-15T12:51:58.378Z,100.00
2023-02-15T12:54:44.366Z,100.00
2023-02-15T12:57:23.991Z,100.00
2023-02-15T13:00:03.197Z,100.00
2023-02-15T13:02:45.044Z,100.00
2023-02-15T13:05:26.101Z,100.00
2023-02-15T13:08:05.792Z,100.00
2023-02-15T13:11:04.069Z,100.00
2023-02-15T13:13:37.491Z,100.00
2023-02-15T13:16:14.673Z,100.00
2023-02-15T13:18:50.295Z,100.00
2023-02-15T13:21:31.341Z,100.00
2023-02-15T13:24:10.133Z,100.00
2023-02-15T13:26:43.143Z,100.00
2023-02-15T13:29:25.807Z,100.00
2023-02-15T13:31:58.289Z,100.00
2023-02-15T13:34:36.838Z,100.00
2023-02-15T13:37:35.081Z,100.00
2023-02-15T13:40:20.925Z,100.00
2023-02-15T13:43:22.171Z,100.00
2023-02-15T13:46:08.611Z,100.00
2023-02-15T13:48:50.781Z,100.00
2023-02-15T13:51:46.472Z,100.00
2023-02-15T13:54:46.068Z,100.00
2023-02-15T13:57:41.846Z,100.00
2023-02-15T14:00:24.568Z,100.00
2023-02-15T14:03:04.432Z,100.00
2023-02-15T14:05:53.402Z,100.00
2023-02-15T14:08:42.733Z,100.00
2023-02-15T14:11:35.251Z,100.00
2023-02-15T14:14:59.642Z,100.00
2023-02-15T14:17:43.044Z,100.00
2023-02-15T14:20:39.963Z,100.00
2023-02-15T14:23:26.307Z,100.00
2023-02-15T14:26:17.784Z,100.00
2023-02-15T14:29:06.671Z,100.00
2023-02-15T14:31:42.299Z,100.00
2023-02-15T14:34:27.109Z,100.00
2023-02-15T14:36:59.067Z,100.00
2023-02-15T14:39:51.028Z,100.00
2023-02-15T14:42:35.999Z,100.00
2023-02-15T14:45:26.356Z,100.00
2023-02-15T14:48:12.449Z,100.00
2023-02-15T14:50:48.568Z,100.00
2023-02-15T14:53:28.672Z,100.00
2023-02-15T14:56:23.106Z,100.00
2023-02-15T14:58:58.742Z,100.00
2023-02-15T15:01:33.833Z,100.00
2023-02-15T15:04:16.198Z,100.00
2023-02-15T15:06:47.696Z,100.00
2023-02-15T15:09:45.304Z,100.00
2023-02-15T15:12:25.334Z,100.00
2023-02-15T15:14:57.121Z,100.00
2023-02-15T15:17:40.461Z,100.00
2023-02-15T15:20:46.790Z,100.00
2023-02-15T15:23:18.351Z,100.00
2023-02-15T15:25:56.578Z,100.00
2023-02-15T15:28:36.908Z,100.00
2023-02-15T15:31:08.222Z,100.00
2023-02-15T15:33:50.776Z,100.00
2023-02-15T15:36:50.459Z,100.00
2023-02-15T15:39:43.375Z,100.00
2023-02-15T15:42:33.819Z,100.00
2023-02-15T15:45:45.795Z,100.00
2023-02-15T15:48:40.372Z,100.00
2023-02-15T15:51:17.725Z,100.00
2023-02-15T15:53:52.885Z,100.00
2023-02-15T15:56:35.618Z,100.00
2023-02-15T15:59:14.992Z,100.00
2023-02-15T16:01:47.820Z,100.00
2023-02-15T16:04:51.273Z,100.00
2023-02-15T16:07:22.555Z,100.00
2023-02-15T16:10:01.805Z,100.00
2023-02-15T16:12:37.345Z,100.00
2023-02-15T16:15:19.270Z,100.00
2023-02-15T16:17:58.815Z,100.00
2023-02-15T16:20:34.296Z,100.00
2023-02-15T16:23:05.278Z,100.00
2023-02-15T16:25:58.863Z,100.00
2023-02-15T16:28:30.401Z,100.00
2023-02-15T16:31:15.868Z,100.00
2023-02-15T16:33:47.989Z,100.00
2023-02-15T16:36:25.651Z,100.00
2023-02-15T16:38:59.917Z,100.00
2023-02-15T16:41:32.869Z,100.00
2023-02-15T16:44:15.730Z,100.00
2023-02-15T16:46:56.414Z,100.00
2023-02-15T16:49:30.081Z,100.00
2023-02-15T16:52:09.613Z,100.00
2023-02-15T16:54:40.716Z,100.00
2023-02-15T16:57:35.840Z,100.00
2023-02-15T17:00:18.119Z,100.00
2023-02-15T17:02:57.887Z,100.00
2023-02-15T17:05:43.536Z,100.00
2023-02-15T17:08:27.112Z,100.00
2023-02-15T17:11:23.731Z,100.00
2023-02-15T17:14:13.367Z,100.00
2023-02-15T17:16:51.420Z,100.00
2023-02-15T17:19:31.694Z,100.00
2023-02-15T17:22:05.970Z,100.00
2023-02-15T17:24:46.129Z,100.00
2023-02-15T17:27:20.368Z,100.00
2023-02-15T17:30:02.573Z,100.00
2023-02-15T17:32:36.814Z,100.00
2023-02-15T17:35:27.163Z,100.00
2023-02-15T17:38:30.534Z,100.00
2023-02-15T17:41:02.016Z,100.00
2023-02-15T17:43:33.678Z,100.00
2023-02-15T17:46:04.961Z,100.00
2023-02-15T17:48:38.714Z,100.00
2023-02-15T17:51:13.754Z,100.00
2023-02-15T17:54:04.400Z,100.00
2023-02-15T17:56:39.540Z,100.00
2023-02-15T17:59:12.898Z,100.00
2023-02-15T18:02:09.794Z,100.00
2023-02-15T18:04:59.034Z,100.00
2023-02-15T18:07:48.501Z,100.00
2023-02-15T18:10:39.503Z,100.00
2023-02-15T18:13:10.997Z,100.00
2023-02-15T18:15:42.386Z,100.00
2023-02-15T18:18:15.195Z,100.00
2023-02-15T18:20:46.688Z,100.00
2023-02-15T18:23:17.869Z,100.00
2023-02-15T18:25:49.412Z,100.00
2023-02-15T18:28:20.544Z,100.00
2023-02-15T18:30:53.847Z,100.00
2023-02-15T18:33:46.254Z,100.00
2023-02-15T18:36:24.745Z,100.00
2023-02-15T18:38:56.664Z,100.00
2023-02-15T18:41:31.180Z,100.00
2023-02-15T18:44:03.136Z,100.00
2023-02-15T18:46:34.291Z,100.00
2023-02-15T18:49:05.686Z,100.00
2023-02-15T18:51:41.429Z,100.00
2023-02-15T18:54:22.016Z,100.00
2023-02-15T18:57:03.111Z,100.00
2023-02-15T18:59:34.289Z,100.00
2023-02-15T19:02:05.557Z,100.00
2023-02-15T19:04:36.489Z,100.00
2023-02-15T19:07:07.574Z,100.00
2023-02-15T19:09:38.720Z,100.00
2023-02-15T19:12:14.113Z,100.00
2023-02-15T19:14:45.574Z,100.00
2023-02-15T19:17:22.247Z,100.00
2023-02-15T19:19:54.645Z,100.00
2023-02-15T19:22:36.354Z,100.00
2023-02-15T19:25:08.527Z,100.00
2023-02-15T19:27:39.803Z,100.00
2023-02-15T19:30:31.634Z,100.00
2023-02-15T19:33:04.209Z,100.00
2023-02-15T19:35:37.480Z,100.00
2023-02-15T19:38:14.058Z,100.00
2023-02-15T19:40:45.784Z,100.00
2023-02-15T19:43:23.190Z,100.00
2023-02-15T19:45:56.493Z,100.00
2023-02-15T19:48:27.763Z,100.00
2023-02-15T19:50:59.314Z,100.00
2023-02-15T19:53:31.837Z,100.00
2023-02-15T19:56:03.201Z,100.00
2023-02-15T19:58:35.227Z,100.00
2023-02-15T20:01:06.816Z,100.00
2023-02-15T20:03:38.339Z,100.00
2023-02-15T20:06:09.021Z,100.00
2023-02-15T20:08:40.223Z,100.00
2023-02-15T20:11:13.489Z,100.00
2023-02-15T20:13:44.497Z,100.00
2023-02-15T20:16:15.842Z,100.00
2023-02-15T20:18:47.937Z,100.00
2023-02-15T20:21:19.631Z,100.00
2023-02-15T20:23:50.689Z,100.00
2023-02-15T20:26:22.524Z,100.00
2023-02-15T20:28:53.083Z,100.00
2023-02-15T20:31:24.567Z,100.00
2023-02-15T20:33:55.519Z,100.00
2023-02-15T20:36:27.005Z,100.00
2023-02-15T20:38:59.401Z,100.00
2023-02-15T20:41:41.582Z,100.00
2023-02-15T20:44:26.952Z,100.00
2023-02-15T20:47:00.686Z,100.00
2023-02-15T20:49:32.036Z,100.00
2023-02-15T20:52:04.081Z,100.00
2023-02-15T20:54:36.961Z,100.00
2023-02-15T20:57:08.515Z,100.00
2023-02-15T20:59:39.889Z,100.00
2023-02-15T21:02:28.086Z,100.00
2023-02-15T21:04:59.550Z,100.00
2023-02-15T21:07:30.194Z,100.00
2023-02-15T21:10:01.734Z,100.00
2023-02-15T21:12:33.858Z,100.00
2023-02-15T21:15:04.842Z,100.00
2023-02-15T21:17:35.845Z,100.00
2023-02-15T21:20:07.218Z,100.00
2023-02-15T21:22:38.619Z,100.00
2023-02-15T21:25:12.021Z,100.00
2023-02-15T21:27:43.841Z,100.00
2023-02-15T21:30:19.686Z,100.00
2023-02-15T21:32:51.062Z,100.00
2023-02-15T21:35:23.026Z,100.00
2023-02-15T21:37:55.274Z,100.00
2023-02-15T21:40:30.212Z,100.00
2023-02-15T21:43:19.352Z,100.00
2023-02-15T21:46:08.377Z,100.00
2023-02-15T21:48:40.538Z,100.00
2023-02-15T21:51:29.877Z,100.00
2023-02-15T21:54:01.286Z,100.00
2023-02-15T21:56:32.488Z,100.00
2023-02-15T21:59:03.790Z,100.00
2023-02-15T22:01:35.248Z,100.00
2023-02-15T22:04:06.610Z,100.00
2023-02-15T22:06:38.222Z,100.00
2023-02-15T22:09:20.735Z,100.00
2023-02-15T22:11:52.704Z,100.00
2023-02-15T22:14:39.926Z,100.00
2023-02-15T22:17:36.064Z,100.00
2023-02-15T22:20:18.720Z,100.00
2023-02-15T22:22:50.868Z,100.00
2023-02-15T22:25:27.408Z,99.02
2023-02-15T22:27:58.950Z,100.00
2023-02-15T22:30:31.270Z,98.21
2023-02-15T22:33:03.142Z,100.00
2023-02-15T22:35:36.141Z,100.00
2023-02-15T22:38:07.717Z,100.00
2023-02-15T22:40:39.244Z,100.00
2023-02-15T22:43:22.258Z,100.00
2023-02-15T22:45:53.474Z,100.00
2023-02-15T22:48:24.556Z,100.00
2023-02-15T22:50:56.171Z,100.00
2023-02-15T22:53:27.717Z,100.00
2023-02-15T22:55:59.978Z,100.00
2023-02-15T22:58:31.609Z,100.00
2023-02-15T23:01:03.947Z,100.00
2023-02-15T23:03:35.353Z,100.00
2023-02-15T23:06:06.838Z,100.00
2023-02-15T23:08:38.183Z,100.00
2023-02-15T23:11:12.806Z,100.00
2023-02-15T23:13:44.001Z,100.00
2023-02-15T23:16:19.602Z,96.52
2023-02-15T23:18:51.483Z,100.00
2023-02-15T23:21:24.124Z,100.00
2023-02-15T23:23:58.078Z,100.00
2023-02-15T23:26:32.520Z,100.00
2023-02-15T23:29:05.611Z,100.00
2023-02-15T23:31:46.840Z,100.00
2023-02-15T23:34:24.319Z,100.00
2023-02-15T23:36:55.856Z,100.00
2023-02-15T23:39:46.053Z,100.00
2023-02-15T23:42:29.363Z,98.02
2023-02-15T23:45:00.476Z,100.00
2023-02-15T23:47:56.049Z,100.00
2023-02-15T23:50:33.006Z,100.00
2023-02-15T23:53:05.677Z,100.00
2023-02-15T23:55:43.124Z,100.00
2023-02-15T23:58:26.293Z,100.00
